Shakopee, MN

9:49 AM CST on February 10, 2016 (GMT -0600)
Providence Pointe | | Change Station
CLOSE
Current Station
Personal Weather Station
Location: Shakopee, MN
Elevation: 830 ft
Nearby Weather Stations

Elev 830 ft 44.77 °N, 93.51 °W | Updated 12 minutes ago

Overcast
Overcast
9.2 °F
Feels Like 9 °F
N
0.9
Wind Variable Wind from North

Today
High -- | Low -- °F
--% Chance of Precip.
Yesterday
High -- | Low -- °F
Precip. -- in
Pressure 30.19 in
Visibility 10.0 miles
Clouds Overcast 11000 ft
Windchill 9 °F
Dew Point -3 °F
Humidity 57%
Rainfall Not available.
Snow Depth Not available.
7:22 AM 5:34 PM
Waxing Crescent, 6% visible
METAR KFCM 101453Z VRB03KT 10SM OVC110 M14/M20 A3012 RMK AO2 SLP221 T11441200 53005
Pressure 30.19 in
Visibility 10.0 miles
Clouds Overcast 11000 ft
Windchill 9 °F
Dew Point -3 °F
Humidity 57%
Rainfall Not available.
Snow Depth Not available.
7:22 AM 5:34 PM
Waxing Crescent, 6% visible
METAR KFCM 101453Z VRB03KT 10SM OVC110 M14/M20 A3012 RMK AO2 SLP221 T11441200 53005

10-Day Weather Forecast

Almanac

Astronomy

Feb. 10, 2016 Rise Set
Actual Time
Civil Twilight
Nautical Twilight
Astronomical Twilight
Moon
Length of Visible Light
Length of Day
Tomorrow will be .
, % of the Moon is Illuminated

Today's Extremes

State Highs State Lows

Community

WunderPhotos

Upload Photos

1,891,863 photos uploaded!

WunderBlog® & News

Nearby

Air Quality

  Air Quality AQ Index Pollutant
Not available.

Snow Depth

Station Depth Elevation

Earthquake Activity

City Distance Mag. Time & Date
Minimum magnitude displayed is 2.5.

Coastal Water Temperatures

Place Temperature

Stations

Nearby Weather Stations

Station Location Temp. Windchill Dew Point Humidity Wind Precip. Elev Updated Type
                   

Watches & Warnings

There are currently no watches in effect.